Unalaska Airport Unalaska US
ICAO: PADU
IATA:
Category: Medium
Scheduled Services:

Elevation: 22 ft
TransAlt. 18000 ft.

Airport Communications:
AWOS 3:125.8
ANCHORAGE CNTR:121.4
CTAF:122.6
COLD BAY RDO:122.6
DUTCH WX:129.5

PADU Zoom In..

If you have problems with the map follow the link
https://www.worldairports.se/pages/airport.php?
ICAO=PADU

Runways:

(A) RW 12 length 4100 ft width 100 ft
---- / hdg 122

(B) RW 30 length 4100 ft width 100 ft
---- / hdg 302

Location; PADU
Day. 14 / Time. 14.56 Zulu
* Altimeter: 28.44
* Temperature: 04° c. 39.2°f.
* Wind from: 300° Speed 10 kn.
Dewpoint: 02° c.
Visibility: 9 Statute Miles.
Clouds: Overcast 1900 ft.
Conditions: Light Rain.

PADU 141456Z AUTO 30010KT 9SM -RA OVC019 04/02 A2844 RMK AO2 WSHFT 1346 SLP635 P0007 60013 T00390017 56013


Wind From 300°
Speed 10 kn.

 
 
jpsmedia worldairports.se 2019   terms of use